sensor_id;sensor_type;location;lat;lon;timestamp;pressure;altitude;pressure_sealevel;temperature;humidity
46598;BME280;32318;48.858;8.252;2023-07-02T00:05:36;99718.56;;;18.62;81.62
46598;BME280;32318;48.858;8.252;2023-07-02T00:13:37;99723.16;;;18.61;81.43
46598;BME280;32318;48.858;8.252;2023-07-02T00:21:37;99720.47;;;18.61;81.47
46598;BME280;32318;48.858;8.252;2023-07-02T00:29:37;99715.81;;;18.50;81.97
46598;BME280;32318;48.858;8.252;2023-07-02T00:37:38;99727.94;;;18.47;80.76
46598;BME280;32318;48.858;8.252;2023-07-02T00:45:39;99725.34;;;18.53;81.47
46598;BME280;32318;48.858;8.252;2023-07-02T00:53:39;99727.84;;;18.54;82.18
46598;BME280;32318;48.858;8.252;2023-07-02T01:01:40;99731.81;;;18.52;82.32
46598;BME280;32318;48.858;8.252;2023-07-02T01:09:40;99742.03;;;18.49;82.49
46598;BME280;32318;48.858;8.252;2023-07-02T01:17:41;99733.09;;;18.49;82.49
46598;BME280;32318;48.858;8.252;2023-07-02T01:25:41;99737.91;;;18.47;81.82
46598;BME280;32318;48.858;8.252;2023-07-02T01:33:42;99748.34;;;18.43;82.12
46598;BME280;32318;48.858;8.252;2023-07-02T01:41:48;99760.44;;;18.41;81.63
46598;BME280;32318;48.858;8.252;2023-07-02T01:49:50;99753.56;;;18.26;81.45
46598;BME280;32318;48.858;8.252;2023-07-02T01:57:50;99758.53;;;18.11;79.28
46598;BME280;32318;48.858;8.252;2023-07-02T02:05:50;99758.59;;;18.04;79.79
46598;BME280;32318;48.858;8.252;2023-07-02T02:13:50;99776.41;;;17.86;79.32
46598;BME280;32318;48.858;8.252;2023-07-02T02:21:51;99779.03;;;17.75;78.77
46598;BME280;32318;48.858;8.252;2023-07-02T02:29:51;99778.84;;;17.69;78.41
46598;BME280;32318;48.858;8.252;2023-07-02T02:37:52;99785.34;;;17.68;78.38
46598;BME280;32318;48.858;8.252;2023-07-02T02:45:52;99790.75;;;17.68;78.29
46598;BME280;32318;48.858;8.252;2023-07-02T02:53:53;99789.94;;;17.61;77.98
46598;BME280;32318;48.858;8.252;2023-07-02T03:01:53;99768.72;;;17.65;78.48
46598;BME280;32318;48.858;8.252;2023-07-02T03:09:53;99787.63;;;17.65;78.72
46598;BME280;32318;48.858;8.252;2023-07-02T03:17:53;99801.97;;;17.65;78.36
46598;BME280;32318;48.858;8.252;2023-07-02T03:25:54;99809.47;;;17.63;77.75
46598;BME280;32318;48.858;8.252;2023-07-02T03:33:54;99816.13;;;17.61;78.29
46598;BME280;32318;48.858;8.252;2023-07-02T03:41:54;99821.97;;;17.58;78.06
46598;BME280;32318;48.858;8.252;2023-07-02T03:49:55;99827.44;;;17.51;78.41
46598;BME280;32318;48.858;8.252;2023-07-02T03:57:55;99832.22;;;17.49;78.22
46598;BME280;32318;48.858;8.252;2023-07-02T04:05:55;99833.53;;;17.39;77.99
46598;BME280;32318;48.858;8.252;2023-07-02T04:13:55;99848.44;;;17.42;77.41
46598;BME280;32318;48.858;8.252;2023-07-02T04:21:56;99863.63;;;17.36;77.39
46598;BME280;32318;48.858;8.252;2023-07-02T04:29:56;99874.00;;;17.39;77.21
46598;BME280;32318;48.858;8.252;2023-07-02T04:37:57;99877.25;;;17.48;77.00
46598;BME280;32318;48.858;8.252;2023-07-02T04:45:57;99878.22;;;17.61;76.85
46598;BME280;32318;48.858;8.252;2023-07-02T04:53:57;99893.06;;;17.77;76.94
46598;BME280;32318;48.858;8.252;2023-07-02T05:01:58;99901.72;;;17.79;76.53
46598;BME280;32318;48.858;8.252;2023-07-02T05:09:58;99905.66;;;17.83;76.42
46598;BME280;32318;48.858;8.252;2023-07-02T05:17:58;99906.59;;;17.95;76.03
46598;BME280;32318;48.858;8.252;2023-07-02T05:25:59;99908.44;;;18.01;76.00
46598;BME280;32318;48.858;8.252;2023-07-02T05:33:59;99912.16;;;18.26;75.32
46598;BME280;32318;48.858;8.252;2023-07-02T05:41:59;99917.91;;;18.55;74.37
46598;BME280;32318;48.858;8.252;2023-07-02T05:50:00;99921.13;;;18.63;73.67
46598;BME280;32318;48.858;8.252;2023-07-02T05:58:00;99928.47;;;18.56;71.38
46598;BME280;32318;48.858;8.252;2023-07-02T06:06:03;99944.94;;;18.55;71.02
46598;BME280;32318;48.858;8.252;2023-07-02T06:14:03;99949.22;;;18.81;70.24
46598;BME280;32318;48.858;8.252;2023-07-02T06:22:05;99946.53;;;19.00;66.78
46598;BME280;32318;48.858;8.252;2023-07-02T06:30:05;99954.91;;;19.28;67.12
46598;BME280;32318;48.858;8.252;2023-07-02T06:38:06;99950.78;;;19.56;67.20
46598;BME280;32318;48.858;8.252;2023-07-02T06:46:06;99957.97;;;19.63;65.80
46598;BME280;32318;48.858;8.252;2023-07-02T06:54:07;99956.69;;;20.19;65.04
46598;BME280;32318;48.858;8.252;2023-07-02T07:02:07;99952.56;;;20.52;63.43
46598;BME280;32318;48.858;8.252;2023-07-02T07:10:07;99959.84;;;20.52;62.59
46598;BME280;32318;48.858;8.252;2023-07-02T07:18:08;99967.88;;;20.82;60.93
46598;BME280;32318;48.858;8.252;2023-07-02T07:26:09;99971.06;;;20.91;59.27
46598;BME280;32318;48.858;8.252;2023-07-02T07:34:09;99968.66;;;21.07;56.55
46598;BME280;32318;48.858;8.252;2023-07-02T07:42:10;99965.59;;;21.03;57.11
46598;BME280;32318;48.858;8.252;2023-07-02T07:50:10;99964.56;;;20.92;56.25
46598;BME280;32318;48.858;8.252;2023-07-02T07:58:10;99963.47;;;21.05;57.08
46598;BME280;32318;48.858;8.252;2023-07-02T08:06:10;99961.91;;;21.09;54.79
46598;BME280;32318;48.858;8.252;2023-07-02T08:14:11;99969.19;;;21.21;55.90
46598;BME280;32318;48.858;8.252;2023-07-02T08:22:12;99950.81;;;21.11;54.77
46598;BME280;32318;48.858;8.252;2023-07-02T08:30:12;99955.53;;;21.15;53.92
46598;BME280;32318;48.858;8.252;2023-07-02T08:38:13;99949.84;;;21.17;52.66
46598;BME280;32318;48.858;8.252;2023-07-02T08:46:14;99951.94;;;21.27;53.86
46598;BME280;32318;48.858;8.252;2023-07-02T08:54:17;99950.88;;;21.57;53.87
46598;BME280;32318;48.858;8.252;2023-07-02T09:02:18;99954.03;;;22.00;53.65
46598;BME280;32318;48.858;8.252;2023-07-02T09:10:29;99944.91;;;21.89;51.43
46598;BME280;32318;48.858;8.252;2023-07-02T09:18:30;99946.31;;;21.74;51.44
46598;BME280;32318;48.858;8.252;2023-07-02T09:26:30;99945.00;;;22.11;51.35
46598;BME280;32318;48.858;8.252;2023-07-02T09:34:31;99945.56;;;22.13;51.43
46598;BME280;32318;48.858;8.252;2023-07-02T09:42:33;99956.53;;;22.01;51.34
46598;BME280;32318;48.858;8.252;2023-07-02T09:50:34;99941.03;;;22.19;51.08
46598;BME280;32318;48.858;8.252;2023-07-02T09:58:35;99934.16;;;22.33;49.89
46598;BME280;32318;48.858;8.252;2023-07-02T10:06:56;99924.16;;;22.56;49.07
46598;BME280;32318;48.858;8.252;2023-07-02T10:14:58;99941.81;;;22.53;48.32
46598;BME280;32318;48.858;8.252;2023-07-02T10:22:58;99933.41;;;22.55;47.88
46598;BME280;32318;48.858;8.252;2023-07-02T10:30:59;99935.31;;;22.77;49.15
46598;BME280;32318;48.858;8.252;2023-07-02T10:39:02;99925.78;;;22.96;46.66
46598;BME280;32318;48.858;8.252;2023-07-02T10:47:05;99929.16;;;23.31;45.12
46598;BME280;32318;48.858;8.252;2023-07-02T10:55:06;99927.53;;;23.57;45.77
46598;BME280;32318;48.858;8.252;2023-07-02T11:03:18;99918.34;;;23.69;45.38
46598;BME280;32318;48.858;8.252;2023-07-02T11:11:19;99911.25;;;23.68;42.39
46598;BME280;32318;48.858;8.252;2023-07-02T11:19:19;99925.97;;;23.67;43.16
46598;BME280;32318;48.858;8.252;2023-07-02T11:27:21;99909.97;;;24.08;40.83
46598;BME280;32318;48.858;8.252;2023-07-02T11:35:33;99903.41;;;24.57;40.15
46598;BME280;32318;48.858;8.252;2023-07-02T11:43:34;99899.97;;;24.82;41.84
46598;BME280;32318;48.858;8.252;2023-07-02T11:51:38;99889.06;;;24.82;38.82
46598;BME280;32318;48.858;8.252;2023-07-02T11:59:38;99882.84;;;25.02;40.76
46598;BME280;32318;48.858;8.252;2023-07-02T12:07:39;99883.41;;;25.15;39.48
46598;BME280;32318;48.858;8.252;2023-07-02T12:15:39;99885.63;;;25.23;37.36
46598;BME280;32318;48.858;8.252;2023-07-02T12:23:39;99875.81;;;25.32;36.62
46598;BME280;32318;48.858;8.252;2023-07-02T12:31:40;99883.41;;;25.20;36.64
46598;BME280;32318;48.858;8.252;2023-07-02T12:39:40;99871.16;;;25.33;36.02
46598;BME280;32318;48.858;8.252;2023-07-02T12:47:41;99886.22;;;25.72;35.50
46598;BME280;32318;48.858;8.252;2023-07-02T12:55:42;99872.78;;;26.11;36.40
46598;BME280;32318;48.858;8.252;2023-07-02T13:03:46;99871.09;;;26.31;35.38
46598;BME280;32318;48.858;8.252;2023-07-02T13:11:50;99853.28;;;26.44;35.40
46598;BME280;32318;48.858;8.252;2023-07-02T13:19:50;99847.97;;;26.79;34.61
46598;BME280;32318;48.858;8.252;2023-07-02T13:27:51;99859.69;;;26.84;34.10
46598;BME280;32318;48.858;8.252;2023-07-02T13:35:51;99853.75;;;26.61;33.79
46598;BME280;32318;48.858;8.252;2023-07-02T13:43:51;99844.13;;;26.69;33.33
46598;BME280;32318;48.858;8.252;2023-07-02T13:51:52;99839.16;;;26.87;32.47
46598;BME280;32318;48.858;8.252;2023-07-02T13:59:52;99849.56;;;26.80;30.82
46598;BME280;32318;48.858;8.252;2023-07-02T14:07:52;99845.25;;;27.13;32.56
46598;BME280;32318;48.858;8.252;2023-07-02T14:15:53;99849.31;;;27.21;31.56
46598;BME280;32318;48.858;8.252;2023-07-02T14:23:53;99843.59;;;27.17;31.97
46598;BME280;32318;48.858;8.252;2023-07-02T14:31:53;99837.22;;;27.27;31.49
46598;BME280;32318;48.858;8.252;2023-07-02T14:39:54;99842.63;;;27.37;30.09
46598;BME280;32318;48.858;8.252;2023-07-02T14:47:54;99843.69;;;27.47;32.06
46598;BME280;32318;48.858;8.252;2023-07-02T14:56:01;99839.59;;;27.39;30.56
46598;BME280;32318;48.858;8.252;2023-07-02T15:04:02;99837.69;;;27.34;31.43
46598;BME280;32318;48.858;8.252;2023-07-02T15:12:02;99836.78;;;27.09;31.75
46598;BME280;32318;48.858;8.252;2023-07-02T15:20:02;99837.88;;;27.14;32.07
46598;BME280;32318;48.858;8.252;2023-07-02T15:28:04;99836.78;;;27.09;32.06
46598;BME280;32318;48.858;8.252;2023-07-02T15:36:05;99832.63;;;26.77;32.13
46598;BME280;32318;48.858;8.252;2023-07-02T15:44:06;99836.47;;;26.66;31.75
46598;BME280;32318;48.858;8.252;2023-07-02T15:52:07;99835.22;;;26.48;32.07
46598;BME280;32318;48.858;8.252;2023-07-02T16:00:07;99839.84;;;26.53;32.86
46598;BME280;32318;48.858;8.252;2023-07-02T16:08:08;99836.56;;;26.45;32.71
46598;BME280;32318;48.858;8.252;2023-07-02T16:16:09;99843.19;;;26.34;32.58
46598;BME280;32318;48.858;8.252;2023-07-02T16:24:20;99850.06;;;26.26;32.42
46598;BME280;32318;48.858;8.252;2023-07-02T16:32:22;99847.59;;;26.20;33.06
46598;BME280;32318;48.858;8.252;2023-07-02T16:40:26;99835.59;;;26.00;32.75
46598;BME280;32318;48.858;8.252;2023-07-02T16:48:26;99830.72;;;25.71;32.71
46598;BME280;32318;48.858;8.252;2023-07-02T16:56:27;99843.03;;;25.68;33.41
46598;BME280;32318;48.858;8.252;2023-07-02T17:04:27;99838.09;;;25.45;33.34
46598;BME280;32318;48.858;8.252;2023-07-02T17:12:29;99847.38;;;25.38;33.75
46598;BME280;32318;48.858;8.252;2023-07-02T17:20:29;99837.81;;;25.31;33.85
46598;BME280;32318;48.858;8.252;2023-07-02T17:28:30;99844.38;;;25.19;34.21
46598;BME280;32318;48.858;8.252;2023-07-02T17:36:31;99853.38;;;25.10;34.66
46598;BME280;32318;48.858;8.252;2023-07-02T17:44:37;99861.00;;;24.92;34.99
46598;BME280;32318;48.858;8.252;2023-07-02T17:52:38;99853.81;;;24.70;35.22
46598;BME280;32318;48.858;8.252;2023-07-02T18:00:38;99847.44;;;24.49;35.95
46598;BME280;32318;48.858;8.252;2023-07-02T18:08:38;99856.63;;;24.33;36.46
46598;BME280;32318;48.858;8.252;2023-07-02T18:16:38;99859.56;;;24.21;36.40
46598;BME280;32318;48.858;8.252;2023-07-02T18:24:40;99862.91;;;23.90;36.78
46598;BME280;32318;48.858;8.252;2023-07-02T18:32:41;99879.66;;;23.72;37.15
46598;BME280;32318;48.858;8.252;2023-07-02T18:40:42;99872.72;;;23.54;37.40
46598;BME280;32318;48.858;8.252;2023-07-02T18:48:43;99878.56;;;23.35;37.81
46598;BME280;32318;48.858;8.252;2023-07-02T18:56:43;99887.66;;;23.18;38.04
46598;BME280;32318;48.858;8.252;2023-07-02T19:04:48;99889.09;;;23.04;38.63
46598;BME280;32318;48.858;8.252;2023-07-02T19:12:49;99900.63;;;22.89;39.00
46598;BME280;32318;48.858;8.252;2023-07-02T19:20:49;99907.47;;;22.69;39.27
46598;BME280;32318;48.858;8.252;2023-07-02T19:28:49;99909.16;;;22.53;39.83
46598;BME280;32318;48.858;8.252;2023-07-02T19:36:50;99914.16;;;22.39;39.69
46598;BME280;32318;48.858;8.252;2023-07-02T19:44:54;99928.66;;;22.28;40.01
46598;BME280;32318;48.858;8.252;2023-07-02T19:52:55;99936.34;;;22.14;40.80
46598;BME280;32318;48.858;8.252;2023-07-02T20:00:55;99947.28;;;22.02;41.38
46598;BME280;32318;48.858;8.252;2023-07-02T20:08:55;99964.41;;;21.86;42.45
46598;BME280;32318;48.858;8.252;2023-07-02T20:16:56;99964.88;;;21.66;42.92
46598;BME280;32318;48.858;8.252;2023-07-02T20:24:56;99956.56;;;21.43;43.27
46598;BME280;32318;48.858;8.252;2023-07-02T20:32:56;99980.72;;;21.28;43.67
46598;BME280;32318;48.858;8.252;2023-07-02T20:41:00;99981.84;;;21.15;44.82
46598;BME280;32318;48.858;8.252;2023-07-02T20:49:03;99984.25;;;20.99;44.97
46598;BME280;32318;48.858;8.252;2023-07-02T20:57:04;99988.31;;;20.85;45.16
46598;BME280;32318;48.858;8.252;2023-07-02T21:05:05;99995.81;;;20.59;46.32
46598;BME280;32318;48.858;8.252;2023-07-02T21:13:05;99994.06;;;20.53;45.87
46598;BME280;32318;48.858;8.252;2023-07-02T21:21:07;100008.91;;;20.50;46.76
46598;BME280;32318;48.858;8.252;2023-07-02T21:29:08;100007.25;;;20.49;46.16
46598;BME280;32318;48.858;8.252;2023-07-02T21:37:08;100000.88;;;20.44;46.76
46598;BME280;32318;48.858;8.252;2023-07-02T21:45:09;100008.06;;;20.38;47.35
46598;BME280;32318;48.858;8.252;2023-07-02T21:53:10;99998.88;;;20.27;47.53
46598;BME280;32318;48.858;8.252;2023-07-02T22:01:10;99997.56;;;20.18;47.92
46598;BME280;32318;48.858;8.252;2023-07-02T22:09:11;100005.84;;;20.11;47.98
46598;BME280;32318;48.858;8.252;2023-07-02T22:17:11;100003.22;;;20.04;48.40
46598;BME280;32318;48.858;8.252;2023-07-02T22:25:12;99995.31;;;20.03;48.36
46598;BME280;32318;48.858;8.252;2023-07-02T22:33:13;99985.75;;;20.00;48.20
46598;BME280;32318;48.858;8.252;2023-07-02T22:41:13;99989.41;;;19.94;48.38
46598;BME280;32318;48.858;8.252;2023-07-02T22:49:13;99989.88;;;19.91;49.21
46598;BME280;32318;48.858;8.252;2023-07-02T22:57:13;99988.44;;;19.88;49.10
46598;BME280;32318;48.858;8.252;2023-07-02T23:05:16;99982.69;;;19.85;49.05
46598;BME280;32318;48.858;8.252;2023-07-02T23:13:17;99987.09;;;19.79;49.55
46598;BME280;32318;48.858;8.252;2023-07-02T23:21:17;99977.19;;;19.73;49.87
46598;BME280;32318;48.858;8.252;2023-07-02T23:29:18;99968.56;;;19.64;50.04
46598;BME280;32318;48.858;8.252;2023-07-02T23:37:20;99972.06;;;19.53;50.01
46598;BME280;32318;48.858;8.252;2023-07-02T23:45:21;99961.34;;;19.46;50.44
46598;BME280;32318;48.858;8.252;2023-07-02T23:53:22;99958.94;;;19.38;50.71
